Time;durP1;ratioP1;P1;durP2;ratioP2;P2;SDS_P1;SDS_P2;PMS_P1;PMS_P2;Temp;Humidity;BMP_temperature;BMP_pressure;BME280_temperature;BME280_humidity;BME280_pressure;Samples;Min_cycle;Max_cycle;Signal;HPM_P1;HPM_P2
2021/03/13 00:00:11;;;;;;;4.70;2.40;;;4.50;99.90;;;;;;5017892;28;20509;-53
2021/03/13 00:02:39;;;;;;;4.80;2.10;;;4.50;99.90;;;;;;5017862;28;20476;-56
2021/03/13 00:05:08;;;;;;;2.83;1.90;;;4.50;99.90;;;;;;5018445;28;20487;-53
2021/03/13 00:07:36;;;;;;;4.33;2.13;;;4.50;99.90;;;;;;5015423;28;20494;-54
2021/03/13 00:10:05;;;;;;;6.07;2.20;;;4.40;99.90;;;;;;5015760;28;20522;-51
2021/03/13 00:12:33;;;;;;;5.13;2.40;;;4.40;99.90;;;;;;5017232;28;21216;-51
2021/03/13 00:15:01;;;;;;;3.00;2.13;;;4.40;99.90;;;;;;5017600;28;20475;-52
2021/03/13 00:17:28;;;;;;;3.73;2.00;;;4.40;99.90;;;;;;5014589;28;21098;-51
2021/03/13 00:19:56;;;;;;;4.03;1.90;;;4.40;99.90;;;;;;5016982;28;20884;-54
2021/03/13 00:22:23;;;;;;;5.80;2.43;;;4.30;99.90;;;;;;5017983;28;20495;-54
2021/03/13 00:24:50;;;;;;;3.43;2.10;;;4.30;99.90;;;;;;5022708;28;20680;-54
2021/03/13 00:27:18;;;;;;;4.77;2.30;;;4.30;99.90;;;;;;5025953;28;20347;-52
2021/03/13 00:29:46;;;;;;;4.23;1.90;;;4.30;99.90;;;;;;5036043;28;20598;-53
2021/03/13 00:32:13;;;;;;;3.40;1.93;;;4.30;99.90;;;;;;5037499;28;20572;-54
2021/03/13 00:34:41;;;;;;;3.87;2.57;;;4.30;99.90;;;;;;5028306;28;20466;-52
2021/03/13 00:37:08;;;;;;;2.77;1.63;;;4.20;99.90;;;;;;5033287;28;20493;-54
2021/03/13 00:39:42;;;;;;;3.20;1.83;;;4.20;99.90;;;;;;5046295;28;20888;-52
2021/03/13 00:42:10;;;;;;;4.63;1.93;;;4.20;99.90;;;;;;5040266;28;20255;-53
2021/03/13 00:44:38;;;;;;;2.67;1.70;;;4.20;99.90;;;;;;5054706;28;20528;-51
2021/03/13 00:47:06;;;;;;;3.83;1.77;;;4.20;99.90;;;;;;5062552;28;20481;-52
2021/03/13 00:49:34;;;;;;;3.57;1.60;;;4.20;99.90;;;;;;5067562;28;20476;-53
2021/03/13 00:52:01;;;;;;;2.73;1.57;;;4.20;99.90;;;;;;5067363;28;20468;-51
2021/03/13 00:54:28;;;;;;;1.73;1.23;;;4.20;99.90;;;;;;5066544;28;20887;-51
2021/03/13 00:56:56;;;;;;;3.87;1.97;;;4.10;99.90;;;;;;5081608;28;20682;-52
2021/03/13 00:59:23;;;;;;;2.63;1.37;;;4.10;99.90;;;;;;5064335;28;20481;-53
2021/03/13 01:01:50;;;;;;;5.63;1.50;;;4.20;99.90;;;;;;5054574;28;21000;-52
2021/03/13 01:04:19;;;;;;;2.57;1.20;;;4.10;99.90;;;;;;5046394;28;20999;-52
2021/03/13 01:06:46;;;;;;;5.57;1.63;;;4.10;99.90;;;;;;5046775;28;20482;-51
2021/03/13 01:09:13;;;;;;;3.50;1.40;;;4.10;99.90;;;;;;5045512;28;20489;-51
2021/03/13 01:11:41;;;;;;;2.60;1.43;;;4.10;99.90;;;;;;5047800;28;20480;-53
2021/03/13 01:14:10;;;;;;;5.77;1.90;;;4.10;99.90;;;;;;5052201;28;20880;-55
2021/03/13 01:16:43;;;;;;;2.97;1.80;;;4.10;99.90;;;;;;5058906;28;20476;-52
2021/03/13 01:19:11;;;;;;;4.17;2.07;;;4.10;99.90;;;;;;5051088;28;21099;-52
2021/03/13 01:21:44;;;;;;;4.37;2.03;;;4.20;99.90;;;;;;5067549;28;20558;-52
2021/03/13 01:24:13;;;;;;;5.73;2.03;;;4.10;99.90;;;;;;5058080;28;20532;-52
2021/03/13 01:26:43;;;;;;;5.53;1.70;;;4.10;99.90;;;;;;5063039;28;20903;-53
2021/03/13 01:29:13;;;;;;;3.47;1.73;;;4.20;99.90;;;;;;5039115;28;20486;-52
2021/03/13 01:31:47;;;;;;;4.03;1.83;;;4.20;99.90;;;;;;5046966;28;20288;-53
2021/03/13 01:34:18;;;;;;;4.03;2.00;;;4.30;99.90;;;;;;5045466;28;20888;-53
2021/03/13 01:36:54;;;;;;;3.07;1.60;;;4.20;99.90;;;;;;5045984;28;20467;-51
2021/03/13 01:39:22;;;;;;;5.87;1.80;;;4.20;99.90;;;;;;5045410;28;21051;-53
2021/03/13 01:41:49;;;;;;;5.77;1.70;;;4.10;99.90;;;;;;5045561;28;20478;-53
2021/03/13 01:44:17;;;;;;;4.00;1.80;;;4.10;99.90;;;;;;5046722;28;20560;-53
2021/03/13 01:46:46;;;;;;;5.23;1.90;;;4.10;99.90;;;;;;5076073;28;20902;-52
2021/03/13 01:49:19;;;;;;;6.00;1.80;;;4.10;99.90;;;;;;5065022;28;20496;-51
2021/03/13 01:51:47;;;;;;;4.63;1.90;;;4.10;99.90;;;;;;5082044;28;20473;-53
2021/03/13 01:54:15;;;;;;;4.50;1.90;;;4.10;99.90;;;;;;5066073;28;20473;-55
2021/03/13 01:56:44;;;;;;;4.10;2.10;;;4.00;99.90;;;;;;5065541;28;20503;-51
2021/03/13 01:59:12;;;;;;;3.87;2.00;;;4.00;99.90;;;;;;5064868;28;20482;-52
2021/03/13 02:01:45;;;;;;;4.47;2.20;;;4.00;99.90;;;;;;5067040;28;20504;-53
2021/03/13 02:04:16;;;;;;;4.90;2.07;;;4.00;99.90;;;;;;5066064;28;20495;-53
2021/03/13 02:06:54;;;;;;;5.57;2.17;;;4.10;99.90;;;;;;5064425;28;20484;-51
2021/03/13 02:09:29;;;;;;;4.87;2.30;;;4.10;99.90;;;;;;5064470;28;20482;-52
2021/03/13 02:12:13;;;;;;;8.50;2.73;;;4.10;99.90;;;;;;5080553;28;20475;-52
2021/03/13 02:14:53;;;;;;;6.10;2.70;;;4.10;99.90;;;;;;5046789;28;20474;-55
2021/03/13 02:17:33;;;;;;;6.43;2.83;;;4.20;99.90;;;;;;5060747;28;20493;-52
2021/03/13 02:20:49;;;;;;;7.47;3.07;;;4.20;99.90;;;;;;5045344;28;20524;-53
2021/03/13 02:23:21;;;;;;;8.03;3.00;;;4.10;99.90;;;;;;5035685;28;21012;-51
2021/03/13 02:26:33;;;;;;;7.83;4.17;;;4.10;99.90;;;;;;5046592;28;20491;-55
2021/03/13 02:29:35;;;;;;;8.77;3.93;;;4.10;99.90;;;;;;5041011;28;20490;-52
2021/03/13 02:32:07;;;;;;;7.50;3.50;;;4.10;99.90;;;;;;5042278;28;20482;-53
2021/03/13 02:34:38;;;;;;;10.03;4.17;;;4.00;99.90;;;;;;5026983;28;20480;-54
2021/03/13 02:37:14;;;;;;;9.60;4.63;;;4.00;99.90;;;;;;5044961;28;20535;-56
2021/03/13 02:39:46;;;;;;;6.97;4.30;;;4.00;99.90;;;;;;5055020;28;20685;-55
2021/03/13 02:42:14;;;;;;;9.50;5.20;;;4.10;99.90;;;;;;5042547;28;20483;-56
2021/03/13 02:44:46;;;;;;;9.20;5.03;;;4.00;99.90;;;;;;5025575;28;20484;-54
2021/03/13 02:47:23;;;;;;;7.80;4.77;;;4.00;99.90;;;;;;5025740;28;20982;-54
2021/03/13 02:49:57;;;;;;;9.03;4.87;;;4.00;99.90;;;;;;5025671;28;21169;-55
2021/03/13 02:52:31;;;;;;;10.07;4.83;;;4.00;99.90;;;;;;5055832;28;20929;-52
2021/03/13 02:55:06;;;;;;;7.20;5.13;;;4.00;99.90;;;;;;5034639;28;20481;-55
2021/03/13 02:57:35;;;;;;;10.20;4.93;;;4.00;99.90;;;;;;5032314;28;20483;-53
2021/03/13 03:00:15;;;;;;;10.27;5.30;;;4.00;99.90;;;;;;5044625;28;20488;-51
2021/03/13 03:02:45;;;;;;;8.47;5.50;;;4.00;99.90;;;;;;5045233;28;21012;-53
2021/03/13 03:05:17;;;;;;;11.70;6.20;;;4.00;99.90;;;;;;5030360;28;20475;-51
2021/03/13 03:07:45;;;;;;;10.30;6.07;;;4.00;99.90;;;;;;5045388;28;20482;-53
2021/03/13 03:10:16;;;;;;;12.93;6.60;;;4.00;99.90;;;;;;5028171;28;20483;-52
2021/03/13 03:12:47;;;;;;;11.13;5.97;;;4.00;99.90;;;;;;5027988;28;20485;-52
2021/03/13 03:15:20;;;;;;;11.90;6.53;;;4.00;99.90;;;;;;5054284;28;20466;-51
2021/03/13 03:17:54;;;;;;;11.43;6.40;;;4.00;99.90;;;;;;5026395;28;20482;-52
2021/03/13 03:20:23;;;;;;;11.57;7.10;;;3.90;99.90;;;;;;5033416;28;20475;-52
2021/03/13 03:22:51;;;;;;;12.60;6.33;;;3.90;99.90;;;;;;5064127;28;20477;-54
2021/03/13 03:25:23;;;;;;;8.87;6.40;;;3.90;99.90;;;;;;5041839;28;20479;-53
2021/03/13 03:27:51;;;;;;;13.70;6.80;;;3.90;99.90;;;;;;5028178;28;20661;-55
2021/03/13 03:30:29;;;;;;;10.47;6.43;;;3.90;99.90;;;;;;5027568;28;20933;-55
2021/03/13 03:32:59;;;;;;;14.97;6.57;;;3.90;99.90;;;;;;5028587;28;20825;-51
2021/03/13 03:35:31;;;;;;;10.43;6.83;;;3.90;99.90;;;;;;5028100;28;20877;-53
2021/03/13 03:38:01;;;;;;;12.93;6.80;;;4.00;99.90;;;;;;5038860;28;20488;-53
2021/03/13 03:40:32;;;;;;;11.50;6.57;;;3.90;99.90;;;;;;5047111;28;20492;-53
2021/03/13 03:43:08;;;;;;;11.57;7.00;;;3.90;99.90;;;;;;5047550;28;20510;-51
2021/03/13 03:45:37;;;;;;;10.47;6.30;;;4.00;99.90;;;;;;5034288;28;20486;-55
2021/03/13 03:48:10;;;;;;;11.30;6.70;;;3.90;99.90;;;;;;5041207;28;20524;-52
2021/03/13 03:50:43;;;;;;;11.60;6.70;;;3.90;99.90;;;;;;5040361;28;20477;-52
2021/03/13 03:53:22;;;;;;;17.10;6.97;;;4.00;99.90;;;;;;5044568;28;20487;-51
2021/03/13 03:55:53;;;;;;;14.83;7.70;;;4.00;99.90;;;;;;5029459;28;20475;-52
2021/03/13 03:58:25;;;;;;;12.73;6.73;;;4.00;99.90;;;;;;5028198;28;20476;-51
2021/03/13 04:00:56;;;;;;;14.23;6.90;;;4.00;99.90;;;;;;5029280;28;20468;-52
2021/03/13 04:03:30;;;;;;;13.87;6.83;;;4.00;99.90;;;;;;5045674;28;20565;-52
2021/03/13 04:05:58;;;;;;;12.03;6.97;;;4.00;99.90;;;;;;5030126;28;20559;-52
2021/03/13 04:08:28;;;;;;;12.87;7.73;;;4.00;99.90;;;;;;5028745;28;20866;-53
2021/03/13 04:10:56;;;;;;;14.90;7.53;;;4.00;99.90;;;;;;5028529;28;20505;-51
2021/03/13 04:13:24;;;;;;;11.50;7.53;;;4.00;99.90;;;;;;5028561;28;20908;-51
2021/03/13 04:15:51;;;;;;;13.93;7.50;;;4.00;99.90;;;;;;5035154;28;20479;-54
2021/03/13 04:18:20;;;;;;;16.97;8.40;;;4.00;99.90;;;;;;5021919;28;20508;-51
2021/03/13 04:20:51;;;;;;;14.23;7.60;;;4.00;99.90;;;;;;5027721;28;20862;-55
2021/03/13 04:23:21;;;;;;;12.90;7.90;;;4.10;99.90;;;;;;5026614;28;20552;-55
2021/03/13 04:25:53;;;;;;;20.80;8.50;;;4.10;99.90;;;;;;5027515;28;20482;-52
2021/03/13 04:28:20;;;;;;;17.10;8.30;;;4.10;99.90;;;;;;5028671;28;20499;-55
2021/03/13 04:30:49;;;;;;;15.27;8.27;;;4.10;99.90;;;;;;5028266;28;20910;-53
2021/03/13 04:33:18;;;;;;;15.70;8.07;;;4.10;99.90;;;;;;5028945;28;20567;-51
2021/03/13 04:35:48;;;;;;;12.70;7.97;;;4.10;99.90;;;;;;5028153;28;20485;-54
2021/03/13 04:38:19;;;;;;;17.27;8.10;;;4.20;99.90;;;;;;5028096;28;20486;-51
2021/03/13 04:40:48;;;;;;;15.77;8.10;;;4.20;99.90;;;;;;5027846;28;20561;-55
2021/03/13 04:43:18;;;;;;;15.20;8.57;;;4.20;99.90;;;;;;5028572;28;20585;-51
2021/03/13 04:45:48;;;;;;;11.90;7.33;;;4.20;99.90;;;;;;5028771;28;20481;-52
2021/03/13 04:48:16;;;;;;;14.80;7.67;;;4.20;99.90;;;;;;5028115;28;20529;-51
2021/03/13 04:50:44;;;;;;;15.10;8.60;;;4.20;99.90;;;;;;5028061;28;20479;-54
2021/03/13 04:53:12;;;;;;;17.43;8.77;;;4.20;99.90;;;;;;5026404;28;20566;-53
2021/03/13 04:55:39;;;;;;;16.57;8.60;;;4.30;99.90;;;;;;5028715;28;20894;-52
2021/03/13 04:58:07;;;;;;;14.73;8.00;;;4.30;99.90;;;;;;5067856;28;20488;-54
2021/03/13 05:00:34;;;;;;;12.73;8.40;;;4.30;99.90;;;;;;5037092;28;20507;-51
2021/03/13 05:03:01;;;;;;;14.03;9.13;;;4.30;99.90;;;;;;5008302;28;20518;-52
2021/03/13 05:05:32;;;;;;;15.50;8.60;;;4.30;99.90;;;;;;5019738;28;20482;-53
2021/03/13 05:08:00;;;;;;;16.53;9.60;;;4.30;99.90;;;;;;5025520;28;20478;-52
2021/03/13 05:10:29;;;;;;;20.10;10.07;;;4.30;99.90;;;;;;5026539;28;20932;-53
2021/03/13 05:12:56;;;;;;;15.63;9.80;;;4.30;99.90;;;;;;5024573;28;20975;-54
2021/03/13 05:15:24;;;;;;;14.67;9.47;;;4.30;99.90;;;;;;5025806;28;20483;-53
2021/03/13 05:17:51;;;;;;;15.87;10.23;;;4.30;99.90;;;;;;5015512;28;20504;-53
2021/03/13 05:20:20;;;;;;;16.27;10.40;;;4.30;99.90;;;;;;5028102;28;21022;-52
2021/03/13 05:22:47;;;;;;;16.33;10.57;;;4.40;99.90;;;;;;5045055;28;20542;-52
2021/03/13 05:25:15;;;;;;;16.13;10.83;;;4.40;99.90;;;;;;5010803;28;20471;-51
2021/03/13 05:27:44;;;;;;;19.07;12.00;;;4.40;99.90;;;;;;5008061;28;20473;-51
2021/03/13 05:30:13;;;;;;;19.10;11.63;;;4.40;99.90;;;;;;5007199;28;21029;-51
2021/03/13 05:32:40;;;;;;;17.27;11.77;;;4.50;99.90;;;;;;5007772;28;20471;-53
2021/03/13 05:35:11;;;;;;;20.10;12.03;;;4.50;99.90;;;;;;5043474;28;20555;-51
2021/03/13 05:37:40;;;;;;;17.03;12.37;;;4.50;99.90;;;;;;5047319;28;20540;-52
2021/03/13 05:40:10;;;;;;;20.33;12.53;;;4.50;99.90;;;;;;5047620;28;20481;-51
2021/03/13 05:42:40;;;;;;;19.83;14.10;;;4.50;99.90;;;;;;5046142;28;20759;-51
2021/03/13 05:45:10;;;;;;;22.43;14.40;;;4.50;99.90;;;;;;5043860;28;20485;-52
2021/03/13 05:47:39;;;;;;;23.20;14.23;;;4.50;99.90;;;;;;5046792;28;20531;-51
2021/03/13 05:50:09;;;;;;;20.40;14.50;;;4.60;99.90;;;;;;5036949;28;20485;-54
2021/03/13 05:52:39;;;;;;;23.87;14.40;;;4.60;99.90;;;;;;5032843;28;20487;-53
2021/03/13 05:55:09;;;;;;;25.03;14.63;;;4.60;99.90;;;;;;5048424;28;20922;-51
2021/03/13 05:57:37;;;;;;;24.67;15.00;;;4.60;99.90;;;;;;5038116;28;20813;-53
2021/03/13 06:00:10;;;;;;;22.37;13.57;;;4.70;99.90;;;;;;5019456;28;20589;-52
2021/03/13 06:02:40;;;;;;;20.20;15.83;;;4.70;99.90;;;;;;5046524;28;20548;-52
2021/03/13 06:05:09;;;;;;;23.23;14.73;;;4.70;99.90;;;;;;5042816;28;20477;-51
2021/03/13 06:07:37;;;;;;;23.57;15.97;;;4.80;99.90;;;;;;5035548;28;20548;-52
2021/03/13 06:10:07;;;;;;;26.67;15.20;;;4.70;99.90;;;;;;5025940;28;20877;-53
2021/03/13 06:12:35;;;;;;;23.63;15.73;;;4.70;99.90;;;;;;5022696;28;20580;-51
2021/03/13 06:15:02;;;;;;;23.20;15.07;;;4.80;99.90;;;;;;5036487;28;20925;-51
2021/03/13 06:17:52;;;;;;;21.33;15.40;;;4.80;99.90;;;;;;5028470;28;20488;-53
2021/03/13 06:20:30;;;;;;;26.73;15.63;;;4.80;99.90;;;;;;5037325;28;20477;-52
2021/03/13 06:23:04;;;;;;;20.93;14.47;;;4.80;99.90;;;;;;5034770;28;20473;-53
2021/03/13 06:25:32;;;;;;;19.57;14.30;;;4.80;99.90;;;;;;5042567;28;20533;-51
2021/03/13 06:28:10;;;;;;;21.07;14.27;;;4.90;99.90;;;;;;5042528;28;20489;-52
2021/03/13 06:30:41;;;;;;;23.77;14.30;;;4.90;99.90;;;;;;5042621;28;20938;-55
2021/03/13 06:33:21;;;;;;;20.83;14.83;;;4.90;99.90;;;;;;5035853;28;20488;-51
2021/03/13 06:35:50;;;;;;;21.23;13.73;;;4.90;99.90;;;;;;5037428;28;20244;-54
2021/03/13 06:38:20;;;;;;;20.63;13.47;;;4.90;99.90;;;;;;5036690;28;20591;-52
2021/03/13 06:40:50;;;;;;;20.80;13.03;;;4.90;99.90;;;;;;5039291;28;20246;-51
2021/03/13 06:43:21;;;;;;;23.20;13.13;;;4.90;99.90;;;;;;5026063;28;20510;-53
2021/03/13 06:46:04;;;;;;;16.83;11.77;;;4.90;99.90;;;;;;5043146;28;20945;-52
2021/03/13 06:48:39;;;;;;;14.53;10.30;;;4.90;99.90;;;;;;5040504;28;20922;-52
2021/03/13 06:51:25;;;;;;;17.13;11.03;;;5.00;99.90;;;;;;5040011;28;20525;-52
2021/03/13 06:54:05;;;;;;;16.27;9.83;;;5.00;99.90;;;;;;5032797;28;20488;-51
2021/03/13 06:56:36;;;;;;;14.37;9.33;;;4.90;99.90;;;;;;5043602;28;20230;-54
2021/03/13 06:59:22;;;;;;;14.57;9.67;;;5.00;99.90;;;;;;5042408;28;20528;-55
2021/03/13 07:02:03;;;;;;;13.63;8.80;;;5.00;99.90;;;;;;5044953;28;20533;-52
2021/03/13 07:04:36;;;;;;;11.23;7.60;;;5.00;99.90;;;;;;5045345;28;20488;-53
2021/03/13 07:07:05;;;;;;;14.17;8.00;;;5.00;99.90;;;;;;5046086;28;20860;-51
2021/03/13 07:10:01;;;;;;;8.80;7.77;;;5.00;99.90;;;;;;5042368;28;20470;-54
2021/03/13 07:12:34;;;;;;;11.10;6.80;;;5.00;99.90;;;;;;5051163;28;20498;-53
2021/03/13 07:15:17;;;;;;;9.20;6.77;;;5.00;99.90;;;;;;5051902;28;20526;-51
2021/03/13 07:17:49;;;;;;;8.47;5.73;;;5.00;99.90;;;;;;5048800;28;21023;-54
2021/03/13 07:20:20;;;;;;;7.40;5.73;;;5.00;99.90;;;;;;5027440;28;20472;-51
2021/03/13 07:22:52;;;;;;;6.73;4.93;;;5.00;99.90;;;;;;5041824;28;20491;-53
2021/03/13 07:25:22;;;;;;;8.07;4.67;;;5.00;99.90;;;;;;5039279;28;20489;-55
2021/03/13 07:27:55;;;;;;;5.43;4.87;;;5.00;99.90;;;;;;5046856;28;20482;-51
2021/03/13 07:30:24;;;;;;;7.87;4.77;;;5.00;99.90;;;;;;5030132;28;20500;-52
2021/03/13 07:32:56;;;;;;;5.07;3.67;;;5.00;99.90;;;;;;5023431;28;20476;-53
2021/03/13 07:35:42;;;;;;;4.87;4.00;;;5.10;99.90;;;;;;5037968;28;20477;-51
2021/03/13 07:38:12;;;;;;;5.00;3.67;;;5.10;99.90;;;;;;5046101;28;20532;-53
2021/03/13 07:40:44;;;;;;;4.63;4.00;;;5.10;99.90;;;;;;5047744;28;20469;-51
2021/03/13 07:43:14;;;;;;;3.93;3.40;;;5.10;99.90;;;;;;5049199;28;20482;-53
2021/03/13 07:45:42;;;;;;;3.40;3.10;;;5.10;99.90;;;;;;5037568;28;20470;-51
2021/03/13 07:48:11;;;;;;;4.33;3.40;;;5.10;99.90;;;;;;5039411;28;20485;-52
2021/03/13 07:50:41;;;;;;;4.70;2.97;;;5.10;99.90;;;;;;5031192;28;20474;-52
2021/03/13 07:53:11;;;;;;;4.03;3.20;;;5.10;99.90;;;;;;5038567;28;20491;-54
2021/03/13 07:55:39;;;;;;;5.00;3.27;;;5.10;99.90;;;;;;5041666;28;20507;-51
2021/03/13 07:58:09;;;;;;;3.37;3.10;;;5.10;99.90;;;;;;5044115;28;20328;-55
2021/03/13 08:00:44;;;;;;;4.57;3.40;;;5.10;99.90;;;;;;5037225;28;20827;-54
2021/03/13 08:03:48;;;;;;;3.40;3.10;;;5.10;99.90;;;;;;5037432;28;20481;-52
2021/03/13 08:06:18;;;;;;;3.37;2.50;;;5.10;99.90;;;;;;5022676;28;20983;-51
2021/03/13 08:08:47;;;;;;;3.37;2.73;;;5.10;99.90;;;;;;5027935;28;20532;-53
2021/03/13 08:11:15;;;;;;;3.27;2.63;;;5.20;99.90;;;;;;5026662;28;21112;-55
2021/03/13 08:13:52;;;;;;;2.80;2.60;;;5.20;99.90;;;;;;5027433;28;20786;-52
2021/03/13 08:16:44;;;;;;;2.50;2.30;;;5.20;99.90;;;;;;5026151;28;20466;-55
2021/03/13 08:19:44;;;;;;;2.50;2.30;;;5.20;99.90;;;;;;5041046;28;20475;-54
2021/03/13 08:22:21;;;;;;;2.40;2.20;;;5.20;99.90;;;;;;5038198;28;20550;-52
2021/03/13 08:24:51;;;;;;;4.77;2.60;;;5.20;99.90;;;;;;5046064;28;20322;-54
2021/03/13 08:27:38;;;;;;;3.13;2.80;;;5.30;99.90;;;;;;5046426;28;20484;-51
2021/03/13 08:30:22;;;;;;;2.70;2.50;;;5.30;99.90;;;;;;5026074;28;20994;-52
2021/03/13 08:33:00;;;;;;;3.20;2.20;;;5.30;99.90;;;;;;5040603;28;20477;-52
2021/03/13 08:35:52;;;;;;;2.30;2.10;;;5.30;99.90;;;;;;5027480;28;20478;-54
2021/03/13 08:38:55;;;;;;;3.13;2.50;;;5.30;99.90;;;;;;5026330;28;20487;-52
2021/03/13 08:41:50;;;;;;;2.30;1.80;;;5.30;99.90;;;;;;5030831;28;20490;-56
2021/03/13 08:44:31;;;;;;;2.07;1.87;;;5.40;99.90;;;;;;5029343;28;20477;-55
2021/03/13 08:47:00;;;;;;;4.17;2.20;;;5.40;99.90;;;;;;5026373;28;20532;-51
2021/03/13 08:49:45;;;;;;;2.63;2.20;;;5.40;99.90;;;;;;5023813;28;20231;-52
2021/03/13 08:52:29;;;;;;;3.20;2.23;;;5.50;99.90;;;;;;5032221;28;20533;-51
2021/03/13 08:55:33;;;;;;;2.50;2.30;;;5.50;99.90;;;;;;5028944;28;20722;-52
2021/03/13 08:58:00;;;;;;;3.90;3.00;;;5.50;99.90;;;;;;5026110;28;20471;-55
2021/03/13 09:00:28;;;;;;;3.47;3.10;;;5.50;99.90;;;;;;5027297;28;20539;-53
2021/03/13 09:02:55;;;;;;;3.17;2.67;;;5.50;99.90;;;;;;5029315;28;20242;-55
2021/03/13 09:05:24;;;;;;;4.13;3.20;;;5.50;99.90;;;;;;5040437;28;20263;-52
2021/03/13 09:07:55;;;;;;;3.40;3.10;;;5.60;99.90;;;;;;5030156;28;20876;-53
2021/03/13 09:10:24;;;;;;;2.60;2.40;;;5.60;99.90;;;;;;5041521;28;20509;-51
2021/03/13 09:12:53;;;;;;;2.90;2.70;;;5.60;99.90;;;;;;5047838;28;20238;-54
2021/03/13 09:15:20;;;;;;;2.60;2.33;;;5.70;99.90;;;;;;5038609;28;20467;-53
2021/03/13 09:17:48;;;;;;;2.90;2.70;;;5.70;99.90;;;;;;5034213;28;20770;-55
2021/03/13 09:20:18;;;;;;;3.90;2.47;;;5.70;99.90;;;;;;5025502;28;20490;-53
2021/03/13 09:22:47;;;;;;;3.80;1.90;;;5.60;99.90;;;;;;5018985;28;20474;-54
2021/03/13 09:25:17;;;;;;;2.93;1.50;;;5.50;99.90;;;;;;5021560;28;20290;-53
2021/03/13 09:27:45;;;;;;;2.90;1.50;;;5.40;99.90;;;;;;5031293;28;21485;-53
2021/03/13 09:30:18;;;;;;;3.83;3.43;;;5.40;99.90;;;;;;5017494;28;20252;-52
2021/03/13 09:32:53;;;;;;;3.17;2.00;;;5.40;99.90;;;;;;5017365;28;20475;-54
2021/03/13 09:35:25;;;;;;;3.30;1.60;;;5.40;99.90;;;;;;5016729;28;20821;-55
2021/03/13 09:37:53;;;;;;;1.23;1.10;;;5.50;99.90;;;;;;5015475;28;20240;-51
2021/03/13 09:40:23;;;;;;;1.70;1.20;;;5.60;99.90;;;;;;5016841;28;20568;-54
2021/03/13 09:42:52;;;;;;;2.83;1.70;;;5.60;99.90;;;;;;5017707;28;20479;-54
2021/03/13 09:45:21;;;;;;;1.70;1.40;;;5.60;99.90;;;;;;5016001;28;20236;-53
2021/03/13 09:47:54;;;;;;;4.60;2.70;;;5.70;99.90;;;;;;5015432;28;20243;-53
2021/03/13 09:50:27;;;;;;;2.80;1.63;;;5.70;99.90;;;;;;5015799;28;20853;-51
2021/03/13 09:52:59;;;;;;;5.23;1.90;;;5.80;99.90;;;;;;5016226;28;20482;-51
2021/03/13 09:55:29;;;;;;;5.90;2.40;;;5.90;99.90;;;;;;5023603;28;20347;-52
2021/03/13 09:57:58;;;;;;;5.27;2.10;;;6.00;99.90;;;;;;5031823;28;20239;-54
2021/03/13 10:00:28;;;;;;;7.17;2.33;;;6.40;99.90;;;;;;5025259;28;20236;-53
2021/03/13 10:02:59;;;;;;;3.90;2.23;;;6.80;99.90;;;;;;5034937;28;20238;-52
2021/03/13 10:05:32;;;;;;;5.03;1.70;;;7.30;99.90;;;;;;4994041;28;20245;-53
2021/03/13 10:08:07;;;;;;;3.60;1.80;;;7.50;99.90;;;;;;4998796;28;20269;-51
2021/03/13 10:10:35;;;;;;;4.37;1.40;;;7.90;99.90;;;;;;4997229;28;20248;-54
2021/03/13 10:13:05;;;;;;;4.30;1.53;;;8.20;99.90;;;;;;5011722;28;20250;-51
2021/03/13 10:15:36;;;;;;;1.87;1.27;;;8.40;99.90;;;;;;5014582;28;20240;-51
2021/03/13 10:18:06;;;;;;;2.57;1.10;;;8.40;99.90;;;;;;5013755;28;20235;-56
2021/03/13 10:20:36;;;;;;;5.17;1.20;;;8.50;99.90;;;;;;5013293;28;20291;-53
2021/03/13 10:23:07;;;;;;;4.03;1.20;;;8.40;99.90;;;;;;5011677;28;20238;-52
2021/03/13 10:25:36;;;;;;;2.83;1.27;;;8.30;99.90;;;;;;5013663;28;20240;-51
2021/03/13 10:28:08;;;;;;;4.17;1.30;;;8.20;99.90;;;;;;5013732;28;20240;-53
2021/03/13 10:30:39;;;;;;;6.07;2.30;;;8.10;99.90;;;;;;5011428;28;20260;-54
2021/03/13 10:33:08;;;;;;;5.20;1.50;;;8.40;99.90;;;;;;5011049;28;20597;-51
2021/03/13 10:35:36;;;;;;;3.37;1.40;;;8.60;99.90;;;;;;5030465;28;20240;-52
2021/03/13 10:38:17;;;;;;;4.00;1.50;;;8.60;99.90;;;;;;5032245;28;20322;-51
2021/03/13 10:40:50;;;;;;;5.40;1.50;;;8.60;99.90;;;;;;5033119;28;20238;-54
2021/03/13 10:43:25;;;;;;;3.20;1.40;;;8.40;99.90;;;;;;5032714;28;20386;-54
2021/03/13 10:46:16;;;;;;;5.40;1.50;;;8.40;99.90;;;;;;5034926;28;20318;-55
2021/03/13 10:49:03;;;;;;;18.60;16.67;;;8.40;99.90;;;;;;4996814;28;20233;-53
2021/03/13 10:51:35;;;;;;;9.80;5.40;;;8.30;99.90;;;;;;5001120;28;20342;-55
2021/03/13 10:54:04;;;;;;;7.17;3.60;;;8.50;99.90;;;;;;4996800;28;20247;-52
2021/03/13 10:56:43;;;;;;;5.37;2.70;;;8.90;99.90;;;;;;5003413;28;20771;-55
2021/03/13 10:59:11;;;;;;;5.70;2.77;;;8.90;99.90;;;;;;5008216;28;20237;-52
2021/03/13 11:01:44;;;;;;;6.20;2.03;;;8.80;99.90;;;;;;5012390;28;20229;-51
2021/03/13 11:04:12;;;;;;;5.97;1.90;;;8.70;99.90;;;;;;5026661;28;20253;-54
2021/03/13 11:06:40;;;;;;;6.77;2.40;;;8.40;99.90;;;;;;5036711;28;20430;-51
2021/03/13 11:09:10;;;;;;;7.23;2.20;;;8.50;99.90;;;;;;5025817;28;20402;-52
2021/03/13 11:11:39;;;;;;;7.33;2.30;;;8.50;99.90;;;;;;5021071;28;20768;-52
2021/03/13 11:14:07;;;;;;;7.90;2.80;;;8.50;99.90;;;;;;5027495;28;20463;-53
2021/03/13 11:16:35;;;;;;;7.37;2.70;;;8.50;99.90;;;;;;5032894;28;20235;-51
2021/03/13 11:19:07;;;;;;;7.83;2.40;;;8.60;99.90;;;;;;5034770;28;20243;-51
2021/03/13 11:21:35;;;;;;;5.37;2.03;;;9.20;99.90;;;;;;5037763;28;20243;-52
2021/03/13 11:24:04;;;;;;;6.53;2.10;;;9.30;99.90;;;;;;5034645;28;20237;-53
2021/03/13 11:26:32;;;;;;;7.77;2.03;;;9.30;99.90;;;;;;5036725;28;20243;-52
2021/03/13 11:28:59;;;;;;;6.47;1.90;;;9.50;99.90;;;;;;5037196;28;20744;-53
2021/03/13 11:31:27;;;;;;;8.47;2.13;;;10.00;99.90;;;;;;5035901;28;20263;-55
2021/03/13 11:33:55;;;;;;;6.33;1.87;;;9.80;99.90;;;;;;5034699;28;20551;-54
2021/03/13 11:36:23;;;;;;;5.03;1.30;;;9.10;99.90;;;;;;5037201;28;20246;-52
2021/03/13 11:38:51;;;;;;;5.27;1.20;;;8.00;99.90;;;;;;5036862;28;20823;-52
2021/03/13 11:41:18;;;;;;;6.33;1.53;;;7.50;99.90;;;;;;5036684;28;20239;-53
2021/03/13 11:43:46;;;;;;;6.47;1.20;;;7.20;99.90;;;;;;5033763;28;20833;-53
2021/03/13 11:46:14;;;;;;;3.73;0.90;;;7.10;99.90;;;;;;5038498;28;20302;-55
2021/03/13 11:48:43;;;;;;;7.57;3.53;;;7.00;99.90;;;;;;5015951;28;20228;-52
2021/03/13 11:51:11;;;;;;;10.23;6.00;;;6.90;99.90;;;;;;5017865;28;20585;-56
2021/03/13 11:53:43;;;;;;;6.50;3.27;;;6.90;99.90;;;;;;5012600;28;20255;-54
2021/03/13 11:56:10;;;;;;;5.27;1.50;;;7.00;99.90;;;;;;5019721;28;20248;-53
2021/03/13 11:58:38;;;;;;;3.37;1.17;;;7.30;99.90;;;;;;5018989;28;20247;-54
2021/03/13 12:01:16;;;;;;;4.40;1.40;;;7.60;99.90;;;;;;5025605;28;20695;-51
2021/03/13 12:03:44;;;;;;;2.47;1.20;;;7.90;99.90;;;;;;5046741;28;20609;-52
2021/03/13 12:06:12;;;;;;;3.47;1.20;;;8.10;99.90;;;;;;5047745;28;20243;-52
2021/03/13 12:09:00;;;;;;;4.07;1.30;;;8.20;99.90;;;;;;5047865;28;20231;-51
2021/03/13 12:11:28;;;;;;;4.33;1.30;;;8.40;99.90;;;;;;5048492;28;20254;-51
2021/03/13 12:13:55;;;;;;;4.77;2.03;;;8.40;99.90;;;;;;5048024;28;20231;-52
2021/03/13 12:16:23;;;;;;;7.93;1.80;;;8.40;99.90;;;;;;5039476;28;20260;-51
2021/03/13 12:18:52;;;;;;;2.97;1.30;;;8.50;99.90;;;;;;5045520;28;20282;-52
2021/03/13 12:21:21;;;;;;;5.77;1.77;;;8.60;99.90;;;;;;5038757;28;20240;-54
2021/03/13 12:23:48;;;;;;;7.47;1.67;;;8.70;99.90;;;;;;5043443;28;20323;-52
2021/03/13 12:26:18;;;;;;;6.80;2.00;;;8.80;99.90;;;;;;5047134;28;20243;-55
2021/03/13 12:28:47;;;;;;;5.43;1.87;;;9.00;99.90;;;;;;5047113;28;20232;-54
2021/03/13 12:31:15;;;;;;;7.87;2.60;;;9.10;99.90;;;;;;5040627;28;20229;-52
2021/03/13 12:33:43;;;;;;;10.60;3.00;;;9.20;99.90;;;;;;5034183;28;20229;-53
2021/03/13 12:36:11;;;;;;;9.27;2.10;;;9.20;99.90;;;;;;5023165;28;20244;-53
2021/03/13 12:38:39;;;;;;;5.90;1.60;;;9.20;99.90;;;;;;5022383;28;20252;-54
2021/03/13 12:41:07;;;;;;;6.90;1.67;;;9.40;99.90;;;;;;5024393;28;20255;-54
2021/03/13 12:43:36;;;;;;;5.73;2.10;;;9.10;99.90;;;;;;5028672;28;20247;-53
2021/03/13 12:46:04;;;;;;;7.60;1.93;;;9.00;99.90;;;;;;5031137;28;20260;-52
2021/03/13 12:48:32;;;;;;;9.77;2.60;;;8.80;99.90;;;;;;5019278;28;20283;-51
2021/03/13 12:51:00;;;;;;;5.70;1.77;;;8.60;99.90;;;;;;5032563;28;20236;-51
2021/03/13 12:53:27;;;;;;;7.63;1.70;;;8.50;99.90;;;;;;5029893;28;20785;-51
2021/03/13 12:55:54;;;;;;;6.63;1.90;;;8.50;99.90;;;;;;5030496;28;20794;-51
2021/03/13 12:58:22;;;;;;;5.50;1.97;;;8.50;99.90;;;;;;5024138;28;20229;-52
2021/03/13 13:00:50;;;;;;;6.90;1.80;;;8.50;99.90;;;;;;5033935;28;20243;-52
2021/03/13 13:03:18;;;;;;;4.73;1.77;;;8.30;99.90;;;;;;5030030;28;20318;-53
2021/03/13 13:05:50;;;;;;;7.10;1.57;;;8.20;99.90;;;;;;5025995;28;20668;-52
2021/03/13 13:08:18;;;;;;;5.57;2.20;;;8.20;99.90;;;;;;5021271;28;20286;-51
2021/03/13 13:10:46;;;;;;;7.10;1.80;;;8.30;99.90;;;;;;5025050;28;20267;-52
2021/03/13 13:13:14;;;;;;;6.73;1.77;;;8.30;99.90;;;;;;5035303;28;20299;-56
2021/03/13 13:15:46;;;;;;;11.10;2.57;;;8.30;99.90;;;;;;5041358;28;20247;-51